createdAt,value
2018-12-16T00:03:37.992Z,988.72
2018-12-16T00:04:13.492Z,988.71
2018-12-16T00:05:13.990Z,988.66
2018-12-16T00:06:13.056Z,988.63
2018-12-16T00:07:13.056Z,988.59
2018-12-16T00:09:48.387Z,988.52
2018-12-16T00:11:09.404Z,988.55
2018-12-16T00:11:48.402Z,988.46
2018-12-16T00:14:24.108Z,988.41
2018-12-16T00:15:42.071Z,988.42
2018-12-16T00:16:20.114Z,988.37
2018-12-16T00:17:20.114Z,988.39
2018-12-16T00:18:41.615Z,988.37
2018-12-16T00:19:20.613Z,988.36
2018-12-16T00:20:24.114Z,988.37
2018-12-16T00:21:20.625Z,988.36
2018-12-16T00:22:36.556Z,988.39
2018-12-16T00:23:41.261Z,988.41
2018-12-16T00:24:21.116Z,988.41
2018-12-16T00:26:56.641Z,988.45
2018-12-16T00:28:17.648Z,988.42
2018-12-16T00:28:56.648Z,988.42
2018-12-16T00:31:32.370Z,988.43
2018-12-16T00:34:20.824Z,988.60
2018-12-16T00:36:35.250Z,988.60
2018-12-16T00:37:31.302Z,988.55
2018-12-16T00:38:32.737Z,988.58
2018-12-16T00:39:52.804Z,988.56
2018-12-16T00:42:28.149Z,988.54
2018-12-16T00:43:03.164Z,988.49
2018-12-16T00:44:03.158Z,988.50
2018-12-16T00:45:03.656Z,988.45
2018-12-16T00:46:03.666Z,988.36
2018-12-16T00:50:16.738Z,988.18
2018-12-16T00:51:13.178Z,988.10
2018-12-16T00:52:10.743Z,988.06
2018-12-16T00:53:14.242Z,988.02
2018-12-16T00:54:11.242Z,988.00
2018-12-16T00:55:11.240Z,987.99
2018-12-16T00:56:11.247Z,987.93
2018-12-16T00:57:11.796Z,987.92
2018-12-16T01:01:41.713Z,987.72
2018-12-16T01:03:54.240Z,987.73
2018-12-16T01:04:50.247Z,987.78
2018-12-16T01:05:50.246Z,987.80
2018-12-16T01:08:22.939Z,987.86
2018-12-16T01:12:27.945Z,987.84
2018-12-16T01:13:28.684Z,987.86
2018-12-16T01:14:53.185Z,987.86
2018-12-16T01:15:29.184Z,987.87
2018-12-16T01:16:50.185Z,987.86
2018-12-16T01:17:29.184Z,987.83
2018-12-16T01:18:29.186Z,987.85
2018-12-16T01:19:54.183Z,987.79
2018-12-16T01:20:34.618Z,987.80
2018-12-16T01:21:29.684Z,987.82
2018-12-16T01:22:29.683Z,987.81
2018-12-16T01:23:51.183Z,987.80
2018-12-16T01:24:33.118Z,987.81
2018-12-16T01:25:34.182Z,987.84
2018-12-16T01:26:30.183Z,987.81
2018-12-16T01:27:51.183Z,987.81
2018-12-16T01:28:53.681Z,987.79
2018-12-16T01:29:51.684Z,987.79
2018-12-16T01:30:55.688Z,987.78
2018-12-16T01:31:51.682Z,987.75
2018-12-16T01:32:31.188Z,987.75
2018-12-16T01:33:52.232Z,987.76
2018-12-16T01:34:31.179Z,987.73
2018-12-16T01:35:31.191Z,987.77
2018-12-16T01:36:35.182Z,987.74
2018-12-16T01:37:52.690Z,987.73
2018-12-16T01:38:32.644Z,987.77
2018-12-16T01:39:52.681Z,987.73
2018-12-16T01:40:52.685Z,987.73
2018-12-16T01:41:56.684Z,987.71
2018-12-16T01:42:53.179Z,987.69
2018-12-16T01:43:53.181Z,987.69
2018-12-16T01:44:32.181Z,987.69
2018-12-16T01:45:32.180Z,987.66
2018-12-16T01:46:32.682Z,987.73
2018-12-16T01:49:07.940Z,987.74
2018-12-16T01:50:07.947Z,987.71
2018-12-16T01:51:07.949Z,987.68
2018-12-16T01:53:43.667Z,987.71
2018-12-16T01:54:39.678Z,987.68
2018-12-16T01:55:39.671Z,987.67
2018-12-16T01:58:11.386Z,987.57
2018-12-16T01:59:16.852Z,987.59
2018-12-16T02:00:11.391Z,987.60
2018-12-16T02:01:32.391Z,987.58
2018-12-16T02:02:32.892Z,987.53
2018-12-16T02:03:11.891Z,987.55
2018-12-16T02:06:08.059Z,987.53
2018-12-16T02:07:08.067Z,987.52
2018-12-16T02:08:08.071Z,987.55
2018-12-16T02:10:22.284Z,987.61
2018-12-16T02:11:41.245Z,987.58
2018-12-16T02:12:18.792Z,987.59
2018-12-16T02:13:18.790Z,987.64
2018-12-16T02:14:43.223Z,987.61
2018-12-16T02:15:49.799Z,987.59
2018-12-16T02:16:40.289Z,987.63
2018-12-16T02:17:40.298Z,987.59
2018-12-16T02:20:12.008Z,987.54
2018-12-16T02:27:04.277Z,987.49
2018-12-16T02:28:00.783Z,987.48
2018-12-16T02:29:00.785Z,987.49
2018-12-16T02:30:01.296Z,987.51
2018-12-16T02:31:21.471Z,987.49
2018-12-16T02:32:01.300Z,987.49
2018-12-16T02:33:05.281Z,987.50
2018-12-16T02:34:01.284Z,987.49
2018-12-16T02:36:33.006Z,987.36
2018-12-16T02:37:33.004Z,987.41
2018-12-16T02:40:08.224Z,987.31
2018-12-16T02:41:08.231Z,987.28
2018-12-16T02:43:42.833Z,987.30
2018-12-16T02:44:39.832Z,987.26
2018-12-16T02:45:39.845Z,987.25
2018-12-16T02:49:45.967Z,987.19
2018-12-16T02:51:03.975Z,987.15
2018-12-16T02:52:03.981Z,987.18
2018-12-16T02:53:05.925Z,987.11
2018-12-16T02:54:04.471Z,987.12
2018-12-16T02:56:39.673Z,987.09
2018-12-16T02:57:18.753Z,987.07
2018-12-16T02:58:18.677Z,987.06
2018-12-16T03:07:03.533Z,986.97
2018-12-16T03:09:52.496Z,986.91
2018-12-16T03:10:32.946Z,986.92
2018-12-16T03:11:52.505Z,986.89
2018-12-16T03:12:36.936Z,986.88
2018-12-16T03:13:53.001Z,986.82
2018-12-16T03:16:03.350Z,986.75
2018-12-16T03:17:03.356Z,986.77
2018-12-16T03:18:05.869Z,986.76
2018-12-16T03:19:04.791Z,986.73
2018-12-16T03:20:06.794Z,986.70
2018-12-16T03:25:42.166Z,986.49
2018-12-16T03:26:43.100Z,986.47
2018-12-16T03:28:03.166Z,986.42
2018-12-16T03:28:48.662Z,986.42
2018-12-16T03:30:07.174Z,986.39
2018-12-16T03:30:42.677Z,986.33
2018-12-16T03:31:42.663Z,986.27
2018-12-16T03:32:43.165Z,986.26
2018-12-16T03:33:43.162Z,986.21
2018-12-16T03:34:43.162Z,986.18
2018-12-16T03:36:08.204Z,986.11
2018-12-16T03:38:15.840Z,986.05
2018-12-16T03:41:10.367Z,985.97
2018-12-16T03:42:07.371Z,985.98
2018-12-16T03:45:52.877Z,985.94
2018-12-16T03:49:52.805Z,986.00
2018-12-16T03:50:55.808Z,985.96
2018-12-16T03:51:52.807Z,985.98
2018-12-16T03:52:52.805Z,985.90
2018-12-16T03:53:53.306Z,985.91
2018-12-16T03:54:54.778Z,985.95
2018-12-16T03:59:21.011Z,985.87
2018-12-16T04:00:00.006Z,985.88
2018-12-16T04:02:34.811Z,985.75
2018-12-16T04:03:34.883Z,985.76
2018-12-16T04:04:34.817Z,985.74
2018-12-16T04:05:34.816Z,985.71
2018-12-16T04:06:38.819Z,985.61
2018-12-16T04:09:27.653Z,985.61
2018-12-16T04:10:06.661Z,985.61
2018-12-16T04:11:06.661Z,985.56
2018-12-16T04:12:10.660Z,985.53
2018-12-16T04:14:59.515Z,985.50
2018-12-16T04:17:14.035Z,985.49
2018-12-16T04:18:10.495Z,985.44
2018-12-16T04:19:10.507Z,985.44
2018-12-16T04:22:03.714Z,985.45
2018-12-16T04:24:17.926Z,985.45
2018-12-16T04:25:17.933Z,985.46
2018-12-16T04:26:17.933Z,985.41
2018-12-16T04:27:18.432Z,985.44
2018-12-16T04:28:21.932Z,985.45
2018-12-16T04:33:56.743Z,985.30
2018-12-16T04:34:52.748Z,985.30
2018-12-16T04:35:52.751Z,985.30
2018-12-16T04:36:53.247Z,985.23
2018-12-16T04:38:13.440Z,985.21
2018-12-16T04:38:53.246Z,985.20
2018-12-16T04:39:56.746Z,985.16
2018-12-16T04:40:53.251Z,985.10
2018-12-16T04:42:14.751Z,985.03
2018-12-16T04:43:14.748Z,984.99
2018-12-16T04:43:53.746Z,984.94
2018-12-16T04:45:18.746Z,984.89
2018-12-16T04:45:54.253Z,984.89
2018-12-16T04:47:15.246Z,984.86
2018-12-16T04:47:54.247Z,984.88
2018-12-16T04:48:54.245Z,984.86
2018-12-16T04:50:19.251Z,984.84
2018-12-16T04:50:54.755Z,984.79
2018-12-16T04:53:47.223Z,984.72
2018-12-16T04:54:26.251Z,984.67
2018-12-16T04:55:29.726Z,984.66
2018-12-16T04:59:29.350Z,984.67
2018-12-16T05:00:53.857Z,984.66
2018-12-16T05:01:29.355Z,984.69
2018-12-16T05:02:29.857Z,984.70
2018-12-16T05:06:36.111Z,984.75
2018-12-16T05:07:53.648Z,984.72
2018-12-16T05:08:32.610Z,984.70
2018-12-16T05:12:40.035Z,984.68
2018-12-16T05:15:28.874Z,984.65
2018-12-16T05:16:07.880Z,984.64
2018-12-16T05:17:09.815Z,984.65
2018-12-16T05:21:14.471Z,984.63
2018-12-16T05:22:14.481Z,984.62
2018-12-16T05:23:19.437Z,984.65
2018-12-16T05:25:46.163Z,984.74
2018-12-16T05:30:13.503Z,984.70
2018-12-16T05:30:52.522Z,984.63
2018-12-16T05:31:52.513Z,984.56
2018-12-16T05:33:14.012Z,984.55
2018-12-16T05:35:31.119Z,984.42
2018-12-16T05:36:28.191Z,984.42
2018-12-16T05:37:49.189Z,984.46
2018-12-16T05:40:03.906Z,984.50
2018-12-16T05:42:31.746Z,984.52
2018-12-16T05:43:31.751Z,984.51
2018-12-16T05:44:31.758Z,984.51
2018-12-16T05:45:56.756Z,984.50
2018-12-16T05:46:32.254Z,984.57
2018-12-16T05:47:53.256Z,984.60
2018-12-16T05:48:52.709Z,984.61
2018-12-16T05:49:53.752Z,984.60
2018-12-16T05:51:03.251Z,984.61
2018-12-16T05:53:25.099Z,984.58
2018-12-16T05:54:04.116Z,984.55
2018-12-16T05:55:04.127Z,984.53
2018-12-16T05:56:08.104Z,984.56
2018-12-16T05:58:35.947Z,984.54
2018-12-16T05:59:58.388Z,984.48
2018-12-16T06:03:44.200Z,984.43
2018-12-16T06:04:45.197Z,984.39
2018-12-16T06:05:42.237Z,984.35
2018-12-16T06:07:04.262Z,984.29
2018-12-16T06:08:09.197Z,984.29
2018-12-16T06:09:04.262Z,984.27
2018-12-16T06:10:04.268Z,984.22
2018-12-16T06:10:43.263Z,984.27
2018-12-16T06:12:04.762Z,984.29
2018-12-16T06:13:08.262Z,984.34
2018-12-16T06:13:43.762Z,984.39
2018-12-16T06:14:45.196Z,984.38
2018-12-16T06:15:44.261Z,984.35
2018-12-16T06:16:45.699Z,984.40
2018-12-16T06:17:45.714Z,984.34
2018-12-16T06:25:18.275Z,984.27
2018-12-16T06:26:14.784Z,984.25
2018-12-16T06:27:14.777Z,984.23
2018-12-16T06:34:03.572Z,984.14
2018-12-16T06:35:03.584Z,984.10
2018-12-16T06:36:28.582Z,984.06
2018-12-16T06:40:06.715Z,984.04
2018-12-16T06:41:12.155Z,984.11
2018-12-16T06:42:06.721Z,984.18
2018-12-16T06:43:28.224Z,984.16
2018-12-16T06:44:10.155Z,984.18
2018-12-16T06:45:07.220Z,984.22
2018-12-16T06:46:10.731Z,984.21
2018-12-16T06:47:07.223Z,984.21
2018-12-16T06:51:13.847Z,984.22
2018-12-16T06:52:10.361Z,984.21
2018-12-16T06:53:12.790Z,984.13
2018-12-16T06:56:06.652Z,984.07
2018-12-16T06:56:46.582Z,984.10
2018-12-16T06:57:42.575Z,984.11
2018-12-16T06:59:04.073Z,984.14
2018-12-16T07:01:15.997Z,984.23
2018-12-16T07:03:49.628Z,984.26
2018-12-16T07:04:49.636Z,984.29
2018-12-16T07:05:49.633Z,984.26
2018-12-16T07:07:11.134Z,984.25
2018-12-16T07:09:25.267Z,984.17
2018-12-16T07:10:25.274Z,984.17
2018-12-16T07:11:25.283Z,984.20
2018-12-16T07:12:25.774Z,984.15
2018-12-16T07:13:52.797Z,984.12
2018-12-16T07:14:25.777Z,984.12
2018-12-16T07:15:25.790Z,984.15
2018-12-16T07:19:53.417Z,984.21
2018-12-16T07:23:33.773Z,984.11
2018-12-16T07:24:34.836Z,984.05
2018-12-16T07:25:53.356Z,984.02
2018-12-16T07:28:04.555Z,983.98
2018-12-16T07:30:39.915Z,983.92
2018-12-16T07:33:08.801Z,983.95
2018-12-16T07:34:07.367Z,983.97
2018-12-16T07:35:07.369Z,984.00
2018-12-16T07:36:32.369Z,984.01
2018-12-16T07:37:07.868Z,983.98
2018-12-16T07:38:07.880Z,984.00
2018-12-16T07:39:07.997Z,984.06
2018-12-16T07:40:08.365Z,984.06
2018-12-16T07:41:38.880Z,984.07
2018-12-16T07:42:08.366Z,984.10
2018-12-16T07:43:08.375Z,984.08
2018-12-16T07:44:08.896Z,984.12
2018-12-16T07:45:08.865Z,984.11
2018-12-16T07:46:08.870Z,984.06
2018-12-16T07:47:33.366Z,984.10
2018-12-16T07:48:09.375Z,984.07
2018-12-16T07:52:38.403Z,984.26
2018-12-16T07:53:12.445Z,984.24
2018-12-16T07:54:16.056Z,984.27
2018-12-16T07:55:12.949Z,984.27
2018-12-16T07:56:12.942Z,984.29
2018-12-16T08:02:12.112Z,984.41
2018-12-16T08:02:54.639Z,984.39
2018-12-16T08:04:12.119Z,984.40
2018-12-16T08:06:43.859Z,984.38
2018-12-16T08:07:22.857Z,984.38
2018-12-16T08:09:57.575Z,984.30
2018-12-16T08:11:18.574Z,984.32
2018-12-16T08:11:57.574Z,984.25
2018-12-16T08:16:04.697Z,984.26
2018-12-16T08:20:11.085Z,984.25
2018-12-16T08:21:07.583Z,984.26
2018-12-16T08:22:09.023Z,984.28
2018-12-16T08:23:29.102Z,984.28
2018-12-16T08:26:03.305Z,984.29
2018-12-16T08:26:39.312Z,984.30
2018-12-16T08:27:39.311Z,984.29
2018-12-16T08:30:11.026Z,984.30
2018-12-16T08:31:35.032Z,984.30
2018-12-16T08:32:11.034Z,984.32
2018-12-16T08:36:39.181Z,984.32
2018-12-16T08:37:37.160Z,984.36
2018-12-16T08:38:16.687Z,984.37
2018-12-16T08:39:35.687Z,984.35
2018-12-16T08:41:49.918Z,984.30
2018-12-16T08:42:46.425Z,984.28
2018-12-16T08:43:46.424Z,984.29
2018-12-16T08:46:19.610Z,984.38
2018-12-16T08:47:21.647Z,984.40
2018-12-16T08:48:18.159Z,984.37
2018-12-16T08:49:17.752Z,984.36
2018-12-16T08:50:18.647Z,984.33
2018-12-16T08:51:18.650Z,984.31
2018-12-16T08:52:22.646Z,984.34
2018-12-16T08:53:19.149Z,984.35
2018-12-16T08:55:50.554Z,984.40
2018-12-16T08:57:11.500Z,984.41
2018-12-16T08:59:25.822Z,984.31
2018-12-16T09:00:48.262Z,984.29
2018-12-16T09:01:25.827Z,984.26
2018-12-16T09:07:25.366Z,984.33
2018-12-16T09:08:04.357Z,984.30
2018-12-16T09:09:28.853Z,984.31
2018-12-16T09:11:57.081Z,984.27
2018-12-16T09:12:36.086Z,984.30
2018-12-16T09:13:37.543Z,984.33
2018-12-16T09:16:11.805Z,984.34
2018-12-16T09:17:11.811Z,984.34
2018-12-16T09:18:11.816Z,984.32
2018-12-16T09:19:12.308Z,984.25
2018-12-16T09:20:15.820Z,984.25
2018-12-16T09:21:18.247Z,984.23
2018-12-16T09:22:12.311Z,984.23
2018-12-16T09:23:12.811Z,984.25
2018-12-16T09:26:08.653Z,984.32
2018-12-16T09:26:44.168Z,984.35
2018-12-16T09:27:44.163Z,984.39
2018-12-16T09:29:05.737Z,984.37
2018-12-16T09:30:05.659Z,984.34
2018-12-16T09:30:49.619Z,984.38
2018-12-16T09:31:44.661Z,984.34
2018-12-16T09:33:05.678Z,984.35
2018-12-16T09:35:16.382Z,984.43
2018-12-16T09:36:41.387Z,984.44
2018-12-16T09:37:16.390Z,984.46
2018-12-16T09:39:48.131Z,984.50
2018-12-16T09:40:48.110Z,984.48
2018-12-16T09:45:15.832Z,984.45
2018-12-16T09:47:29.808Z,984.44
2018-12-16T09:48:26.314Z,984.42
2018-12-16T09:49:26.337Z,984.42
2018-12-16T09:52:02.494Z,984.48
2018-12-16T09:53:01.062Z,984.46
2018-12-16T09:53:59.993Z,984.51
2018-12-16T09:56:29.037Z,984.41
2018-12-16T09:57:50.779Z,984.41
2018-12-16T09:58:54.782Z,984.37
2018-12-16T10:01:01.511Z,984.36
2018-12-16T10:02:02.982Z,984.36
2018-12-16T10:03:02.985Z,984.39
2018-12-16T10:05:36.853Z,984.45
2018-12-16T10:08:08.332Z,984.42
2018-12-16T10:10:44.531Z,984.39
2018-12-16T10:13:15.994Z,984.42
2018-12-16T10:14:19.514Z,984.39
2018-12-16T10:15:15.993Z,984.40
2018-12-16T10:16:14.563Z,984.41
2018-12-16T10:19:07.282Z,984.35
2018-12-16T10:20:10.285Z,984.35
2018-12-16T10:20:46.292Z,984.30
2018-12-16T10:26:23.153Z,984.26
2018-12-16T10:27:23.161Z,984.22
2018-12-16T10:28:23.169Z,984.16
2018-12-16T10:30:58.885Z,984.12
2018-12-16T10:34:57.803Z,984.13
2018-12-16T10:36:21.797Z,984.11
2018-12-16T10:36:57.793Z,984.07
2018-12-16T10:41:03.956Z,984.04
2018-12-16T10:42:02.932Z,984.04
2018-12-16T10:43:00.951Z,984.01
2018-12-16T10:47:07.089Z,984.05
2018-12-16T10:48:04.130Z,984.07
2018-12-16T10:49:18.584Z,984.08
2018-12-16T10:50:05.514Z,984.10
2018-12-16T10:53:00.989Z,984.10
2018-12-16T10:53:36.641Z,984.09
2018-12-16T10:54:35.999Z,984.12
2018-12-16T10:55:57.501Z,984.07
2018-12-16T10:56:36.555Z,984.09
2018-12-16T11:02:14.535Z,984.05
2018-12-16T11:03:40.500Z,984.01
2018-12-16T11:04:14.522Z,983.93
2018-12-16T11:05:15.021Z,983.94
2018-12-16T11:06:15.022Z,983.95
2018-12-16T11:09:12.931Z,983.93
2018-12-16T11:10:07.495Z,983.92
2018-12-16T11:10:46.494Z,983.94
2018-12-16T11:11:46.994Z,983.88
2018-12-16T11:14:42.843Z,983.77
2018-12-16T11:15:18.362Z,983.72
2018-12-16T11:16:18.343Z,983.69
2018-12-16T11:17:21.777Z,983.64
2018-12-16T11:18:18.842Z,983.63
2018-12-16T11:19:36.844Z,983.60
2018-12-16T11:20:18.843Z,983.59
2018-12-16T11:21:40.342Z,983.61
2018-12-16T11:22:40.347Z,983.58
2018-12-16T11:23:19.344Z,983.58
2018-12-16T11:24:19.342Z,983.55
2018-12-16T11:25:22.836Z,983.48
2018-12-16T11:27:53.268Z,983.45
2018-12-16T11:30:47.225Z,983.43
2018-12-16T11:31:43.761Z,983.40
2018-12-16T11:32:22.731Z,983.44
2018-12-16T11:33:23.237Z,983.46
2018-12-16T11:35:59.519Z,983.54
2018-12-16T11:37:17.042Z,983.53
2018-12-16T11:37:54.592Z,983.50
2018-12-16T11:39:18.013Z,983.48
2018-12-16T11:41:51.307Z,983.41
2018-12-16T11:43:57.815Z,983.28
2018-12-16T11:44:57.789Z,983.27
2018-12-16T11:45:57.790Z,983.28
2018-12-16T11:47:01.816Z,983.26
2018-12-16T11:48:03.223Z,983.22
2018-12-16T11:48:58.289Z,983.22
2018-12-16T11:49:58.293Z,983.27
2018-12-16T11:50:58.308Z,983.32
2018-12-16T11:52:29.296Z,983.34
2018-12-16T11:52:58.789Z,983.36
2018-12-16T11:54:03.223Z,983.36
2018-12-16T11:54:58.789Z,983.33
2018-12-16T11:55:58.788Z,983.31
2018-12-16T12:00:05.056Z,983.32
2018-12-16T12:01:19.041Z,983.35
2018-12-16T12:02:05.041Z,983.32
2018-12-16T12:07:43.555Z,983.21
2018-12-16T12:08:44.506Z,983.23
2018-12-16T12:09:47.043Z,983.23
2018-12-16T12:10:43.537Z,983.27
2018-12-16T12:13:15.257Z,983.31
2018-12-16T12:14:15.280Z,983.30
2018-12-16T12:15:39.763Z,983.29
2018-12-16T12:17:46.987Z,983.28
2018-12-16T12:18:46.998Z,983.28
2018-12-16T12:19:47.007Z,983.27
2018-12-16T12:20:51.020Z,983.29
2018-12-16T12:24:50.259Z,983.23
2018-12-16T12:25:54.262Z,983.20
2018-12-16T12:28:21.880Z,983.19
2018-12-16T12:29:45.794Z,983.19
2018-12-16T12:30:21.859Z,983.20
2018-12-16T12:31:26.735Z,983.22
2018-12-16T12:32:43.359Z,983.20
2018-12-16T12:33:22.359Z,983.23
2018-12-16T12:34:22.364Z,983.26
2018-12-16T12:36:57.593Z,983.27
2018-12-16T12:37:56.034Z,983.26
2018-12-16T12:38:54.080Z,983.27
2018-12-16T12:39:54.082Z,983.30
2018-12-16T12:40:54.580Z,983.28
2018-12-16T12:42:26.516Z,983.28
2018-12-16T12:42:54.579Z,983.33
2018-12-16T12:43:54.597Z,983.29
2018-12-16T12:44:56.540Z,983.30
2018-12-16T12:45:56.546Z,983.29
2018-12-16T12:48:30.542Z,983.25
2018-12-16T12:49:31.469Z,983.23
2018-12-16T12:52:02.142Z,983.21
2018-12-16T12:54:37.333Z,983.23
2018-12-16T12:57:08.811Z,983.21
2018-12-16T13:01:37.499Z,983.23
2018-12-16T13:02:15.502Z,983.19
2018-12-16T13:03:21.464Z,983.24
2018-12-16T13:07:20.047Z,983.29
2018-12-16T13:09:54.024Z,983.22
2018-12-16T13:10:54.015Z,983.20
2018-12-16T13:11:54.007Z,983.18
2018-12-16T13:12:54.512Z,983.23
2018-12-16T13:14:19.009Z,983.17
2018-12-16T13:14:54.507Z,983.18
2018-12-16T13:15:54.512Z,983.21
2018-12-16T13:22:07.718Z,983.17
2018-12-16T13:22:35.613Z,983.13
2018-12-16T13:23:32.693Z,983.18
2018-12-16T13:24:33.170Z,983.20
2018-12-16T13:27:29.372Z,983.17
2018-12-16T13:28:09.849Z,983.16
2018-12-16T13:29:08.399Z,983.20
2018-12-16T13:30:08.374Z,983.21
2018-12-16T13:31:33.386Z,983.22
2018-12-16T13:32:29.934Z,983.23
2018-12-16T13:36:14.713Z,983.23
2018-12-16T13:37:12.201Z,983.29
2018-12-16T13:38:33.200Z,983.33
2018-12-16T13:40:43.939Z,983.35
2018-12-16T13:42:08.454Z,983.31
2018-12-16T13:42:46.428Z,983.28
2018-12-16T13:44:04.960Z,983.29
2018-12-16T13:44:43.940Z,983.26
2018-12-16T13:46:06.396Z,983.29
2018-12-16T13:48:23.233Z,983.23
2018-12-16T13:49:21.184Z,983.27
2018-12-16T13:50:19.236Z,983.25
2018-12-16T13:51:19.233Z,983.26
2018-12-16T13:52:47.173Z,983.27
2018-12-16T13:53:40.745Z,983.25
2018-12-16T14:00:29.209Z,983.30
2018-12-16T14:01:31.120Z,983.25
2018-12-16T14:02:32.685Z,983.29
2018-12-16T14:05:02.382Z,983.35
2018-12-16T14:06:21.913Z,983.39
2018-12-16T14:07:00.917Z,983.39
2018-12-16T14:09:36.582Z,983.37
2018-12-16T14:10:36.585Z,983.36
2018-12-16T14:11:36.585Z,983.32
2018-12-16T14:12:51.086Z,983.35
2018-12-16T14:13:41.105Z,983.43
2018-12-16T14:14:37.084Z,983.40
2018-12-16T14:15:37.084Z,983.44
2018-12-16T14:18:08.803Z,983.39
2018-12-16T14:19:12.309Z,983.38
2018-12-16T14:20:30.316Z,983.43
2018-12-16T14:21:09.308Z,983.35
2018-12-16T14:22:30.306Z,983.37
2018-12-16T14:23:09.315Z,983.32
2018-12-16T14:24:34.808Z,983.37
2018-12-16T14:26:41.167Z,983.38
2018-12-16T14:27:41.165Z,983.40
2018-12-16T14:28:41.168Z,983.42
2018-12-16T14:30:06.167Z,983.38
2018-12-16T14:30:41.664Z,983.38
2018-12-16T14:33:14.132Z,983.35
2018-12-16T14:34:35.073Z,983.33
2018-12-16T14:35:36.643Z,983.34
2018-12-16T14:36:34.638Z,983.39
2018-12-16T14:37:13.637Z,983.43
2018-12-16T14:38:15.101Z,983.47
2018-12-16T14:39:13.649Z,983.49
2018-12-16T14:43:42.097Z,983.52
2018-12-16T14:44:42.073Z,983.52
2018-12-16T14:45:25.071Z,983.60
2018-12-16T14:48:13.788Z,983.61
2018-12-16T14:48:52.795Z,983.62
2018-12-16T14:49:52.799Z,983.57
2018-12-16T14:51:17.795Z,983.61
2018-12-16T14:55:17.084Z,983.62
2018-12-16T14:56:00.091Z,983.60
2018-12-16T14:56:56.083Z,983.59
2018-12-16T15:02:34.664Z,983.62
2018-12-16T15:03:34.643Z,983.61
2018-12-16T15:04:34.642Z,983.61
2018-12-16T15:07:10.357Z,983.61
2018-12-16T15:08:08.314Z,983.59
2018-12-16T15:09:08.300Z,983.63
2018-12-16T15:11:39.030Z,983.69
2018-12-16T15:16:07.231Z,983.63
2018-12-16T15:16:46.230Z,983.66
2018-12-16T15:17:50.231Z,983.65
2018-12-16T15:19:07.733Z,983.70
2018-12-16T15:19:46.730Z,983.68
2018-12-16T15:20:46.730Z,983.69
2018-12-16T15:21:46.729Z,983.73
2018-12-16T15:22:47.235Z,983.73
2018-12-16T15:23:51.230Z,983.78
2018-12-16T15:24:47.235Z,983.85
2018-12-16T15:25:47.230Z,983.82
2018-12-16T15:26:47.728Z,983.86
2018-12-16T15:27:47.731Z,983.82
2018-12-16T15:28:47.737Z,983.80
2018-12-16T15:29:51.273Z,983.84
2018-12-16T15:31:09.228Z,983.81
2018-12-16T15:33:40.576Z,983.78
2018-12-16T15:34:42.059Z,983.77
2018-12-16T15:35:23.583Z,983.79
2018-12-16T15:37:51.314Z,983.75
2018-12-16T15:38:51.306Z,983.76
2018-12-16T15:39:51.808Z,983.78
2018-12-16T15:40:55.310Z,983.78
2018-12-16T15:41:51.806Z,983.80
2018-12-16T15:43:12.805Z,983.81
2018-12-16T15:43:52.322Z,983.77
2018-12-16T15:44:52.306Z,983.86
2018-12-16T15:45:52.306Z,983.85
2018-12-16T15:47:18.740Z,983.91
2018-12-16T15:50:55.480Z,983.94
2018-12-16T15:53:30.908Z,983.94
2018-12-16T15:54:30.907Z,983.96
2018-12-16T15:55:34.344Z,983.89
2018-12-16T15:59:38.033Z,983.96
2018-12-16T16:00:59.025Z,983.98
2018-12-16T16:01:59.029Z,983.98
2018-12-16T16:04:13.753Z,984.00
2018-12-16T16:06:41.253Z,984.01
2018-12-16T16:07:48.668Z,984.02
2018-12-16T16:08:41.225Z,984.01
2018-12-16T16:10:06.225Z,984.00
2018-12-16T16:12:27.074Z,984.02
2018-12-16T16:13:13.098Z,983.98
2018-12-16T16:14:13.079Z,983.98
2018-12-16T16:18:18.956Z,984.04
2018-12-16T16:19:20.637Z,984.04
2018-12-16T16:20:50.201Z,984.05
2018-12-16T16:23:12.430Z,984.08
2018-12-16T16:24:12.433Z,984.10
2018-12-16T16:24:51.433Z,984.13
2018-12-16T16:27:27.139Z,984.08
2018-12-16T16:31:33.500Z,984.12
2018-12-16T16:35:53.956Z,984.32
2018-12-16T16:36:36.389Z,984.32
2018-12-16T16:37:32.889Z,984.33
2018-12-16T16:38:55.850Z,984.39
2018-12-16T16:42:39.617Z,984.40
2018-12-16T16:43:36.191Z,984.36
2018-12-16T16:44:36.113Z,984.35
2018-12-16T16:45:36.113Z,984.34
2018-12-16T16:49:42.683Z,984.24
2018-12-16T16:52:14.139Z,984.25
2018-12-16T16:55:11.365Z,984.32
2018-12-16T16:55:48.914Z,984.35
2018-12-16T16:58:44.614Z,984.35
2018-12-16T16:59:19.959Z,984.38
2018-12-16T17:02:13.211Z,984.46
2018-12-16T17:02:52.179Z,984.42
2018-12-16T17:03:56.178Z,984.44
2018-12-16T17:06:26.836Z,984.51
2018-12-16T17:08:59.743Z,984.52
2018-12-16T17:11:27.699Z,984.55
2018-12-16T17:12:27.035Z,984.62
2018-12-16T17:16:33.959Z,984.64
2018-12-16T17:19:05.411Z,984.70
2018-12-16T17:21:40.181Z,984.68
2018-12-16T17:22:40.203Z,984.71
2018-12-16T17:23:40.180Z,984.68
2018-12-16T17:25:01.682Z,984.67
2018-12-16T17:25:48.285Z,984.67
2018-12-16T17:26:40.697Z,984.68
2018-12-16T17:27:40.685Z,984.67
2018-12-16T17:30:12.419Z,984.63
2018-12-16T17:31:36.910Z,984.61
2018-12-16T17:32:12.440Z,984.68
2018-12-16T17:33:12.911Z,984.69
2018-12-16T17:34:33.911Z,984.70
2018-12-16T17:35:12.909Z,984.70
2018-12-16T17:36:12.926Z,984.68
2018-12-16T17:37:16.914Z,984.70
2018-12-16T17:38:13.410Z,984.71
2018-12-16T17:40:44.883Z,984.73
2018-12-16T17:41:44.883Z,984.75
2018-12-16T17:47:37.392Z,984.83
2018-12-16T17:53:24.128Z,984.91
2018-12-16T17:54:05.188Z,984.94
2018-12-16T17:55:01.680Z,984.98
2018-12-16T18:00:40.662Z,985.00
2018-12-16T18:01:39.682Z,985.01
2018-12-16T18:03:00.684Z,985.04
2018-12-16T18:07:07.767Z,985.08
2018-12-16T18:07:46.742Z,985.10
2018-12-16T18:08:46.742Z,985.11
2018-12-16T18:11:43.477Z,985.07
2018-12-16T18:12:18.467Z,985.07
2018-12-16T18:15:11.109Z,985.05
2018-12-16T18:16:13.011Z,985.06
2018-12-16T18:16:54.413Z,985.05
2018-12-16T18:21:14.735Z,984.93
2018-12-16T18:21:57.189Z,984.97
2018-12-16T18:22:53.689Z,984.97
2018-12-16T18:23:54.190Z,984.93
2018-12-16T18:24:54.190Z,984.92
2018-12-16T18:25:54.189Z,984.94
2018-12-16T18:26:58.188Z,984.97
2018-12-16T18:27:53.818Z,985.04
2018-12-16T18:28:54.692Z,985.01
2018-12-16T18:29:54.699Z,985.05
2018-12-16T18:30:54.688Z,985.05
2018-12-16T18:32:18.690Z,985.07
2018-12-16T18:32:55.191Z,985.03
2018-12-16T18:34:16.217Z,985.04
2018-12-16T18:34:55.187Z,985.06
2018-12-16T18:35:55.687Z,985.01
2018-12-16T18:36:55.688Z,985.02
2018-12-16T18:37:59.688Z,984.97
2018-12-16T18:38:55.687Z,985.03
2018-12-16T18:44:34.117Z,985.08
2018-12-16T18:45:34.111Z,985.08
2018-12-16T18:46:35.546Z,985.07
2018-12-16T18:47:34.616Z,985.09
2018-12-16T18:49:13.109Z,985.11
2018-12-16T18:49:34.616Z,985.10
2018-12-16T18:50:36.616Z,985.14
2018-12-16T18:51:36.585Z,985.12
2018-12-16T18:52:36.046Z,985.15
2018-12-16T18:53:35.109Z,985.12
2018-12-16T18:55:00.110Z,985.13
2018-12-16T18:55:56.609Z,985.11
2018-12-16T18:56:37.071Z,985.13
2018-12-16T18:57:56.630Z,985.17
2018-12-16T18:58:56.612Z,985.18
2018-12-16T19:04:34.564Z,985.11
2018-12-16T19:05:38.073Z,985.14
2018-12-16T19:07:45.031Z,985.10
2018-12-16T19:08:45.039Z,985.11
2018-12-16T19:09:45.034Z,985.08
2018-12-16T19:12:20.255Z,985.04
2018-12-16T19:13:21.839Z,985.08
2018-12-16T19:14:41.236Z,985.09
2018-12-16T19:17:17.902Z,985.17
2018-12-16T19:17:53.925Z,985.18
2018-12-16T19:20:44.527Z,985.18
2018-12-16T19:21:44.526Z,985.17
2018-12-16T19:22:48.524Z,985.12
2018-12-16T19:25:17.714Z,985.19
2018-12-16T19:25:55.259Z,985.18
2018-12-16T19:27:16.270Z,985.22
2018-12-16T19:28:21.721Z,985.20